Time;durP1;ratioP1;P1;durP2;ratioP2;P2;SDS_P1;SDS_P2;PMS_P1;PMS_P2;Temp;Humidity;BMP_temperature;BMP_pressure;BME280_temperature;BME280_humidity;BME280_pressure;Samples;Min_cycle;Max_cycle;Signal;HPM_P1;HPM_P2
2022/07/04 00:02:10;;;;;;;10.73;7.63;;;;;;;;;;739123;189;982611;-71
2022/07/04 00:04:36;;;;;;;14.00;8.03;;;;;;;;;;746222;187;919576;-71
2022/07/04 00:07:02;;;;;;;13.37;6.63;;;;;;;;;;745943;188;918872;-70
2022/07/04 00:09:27;;;;;;;12.83;7.70;;;;;;;;;;742915;187;919016;-70
2022/07/04 00:11:53;;;;;;;17.57;6.70;;;;;;;;;;738692;187;919000;-71
2022/07/04 00:14:19;;;;;;;9.40;6.70;;;;;;;;;;743610;189;915242;-71
2022/07/04 00:16:45;;;;;;;27.37;9.57;;;;;;;;;;738861;187;919344;-70
2022/07/04 00:19:11;;;;;;;10.10;7.20;;;;;;;;;;739648;187;1021521;-72
2022/07/04 00:21:37;;;;;;;9.73;7.80;;;;;;;;;;743920;189;919085;-71
2022/07/04 00:24:03;;;;;;;16.07;7.20;;;;;;;;;;735760;189;918950;-71
2022/07/04 00:26:29;;;;;;;13.20;7.33;;;;;;;;;;739962;188;921364;-71
2022/07/04 00:28:55;;;;;;;13.23;6.80;;;;;;;;;;741634;187;918686;-70
2022/07/04 00:31:21;;;;;;;13.00;7.67;;;;;;;;;;747042;187;919457;-70
2022/07/04 00:33:46;;;;;;;10.87;7.73;;;;;;;;;;740659;188;918330;-71
2022/07/04 00:36:12;;;;;;;32.50;8.03;;;;;;;;;;738635;188;919121;-71
2022/07/04 00:38:38;;;;;;;10.43;7.53;;;;;;;;;;741211;186;919047;-70
2022/07/04 00:41:04;;;;;;;10.70;7.50;;;;;;;;;;738828;188;922741;-70
2022/07/04 00:43:30;;;;;;;20.42;8.27;;;;;;;;;;741156;188;919290;-71
2022/07/04 00:45:56;;;;;;;16.27;7.53;;;;;;;;;;748053;186;917959;-70
2022/07/04 00:48:22;;;;;;;9.63;6.80;;;;;;;;;;743960;187;918831;-69
2022/07/04 00:50:47;;;;;;;12.40;8.20;;;;;;;;;;741803;188;919681;-68
2022/07/04 00:53:14;;;;;;;28.10;7.87;;;;;;;;;;744941;187;917491;-68
2022/07/04 00:55:40;;;;;;;13.03;7.33;;;;;;;;;;750669;184;920141;-69
2022/07/04 00:58:06;;;;;;;18.33;7.07;;;;;;;;;;737840;188;917320;-68
2022/07/04 01:00:32;;;;;;;16.63;8.27;;;;;;;;;;739345;188;919169;-69
2022/07/04 01:02:57;;;;;;;16.53;8.17;;;;;;;;;;745168;189;918699;-69
2022/07/04 01:05:23;;;;;;;12.53;8.67;;;;;;;;;;744576;187;923484;-68
2022/07/04 01:07:49;;;;;;;22.30;9.53;;;;;;;;;;739862;187;917091;-69
2022/07/04 01:10:15;;;;;;;13.23;8.23;;;;;;;;;;741895;187;920534;-69
2022/07/04 01:12:41;;;;;;;14.53;7.90;;;;;;;;;;737593;188;916498;-70
2022/07/04 01:15:08;;;;;;;12.50;6.90;;;;;;;;;;743268;187;916230;-68
2022/07/04 01:17:34;;;;;;;13.40;7.53;;;;;;;;;;739362;187;967520;-69
2022/07/04 01:19:59;;;;;;;19.80;8.23;;;;;;;;;;744437;188;914407;-69
2022/07/04 01:22:25;;;;;;;15.63;7.97;;;;;;;;;;737509;187;915739;-69
2022/07/04 01:24:51;;;;;;;11.65;7.65;;;;;;;;;;736232;189;914737;-69
2022/07/04 01:27:18;;;;;;;16.67;7.33;;;;;;;;;;746824;187;912412;-68
2022/07/04 01:29:43;;;;;;;24.40;8.07;;;;;;;;;;738872;186;915297;-69
2022/07/04 01:32:09;;;;;;;21.37;9.50;;;;;;;;;;746949;186;915160;-70
2022/07/04 01:34:35;;;;;;;27.77;10.47;;;;;;;;;;747480;187;915422;-70
2022/07/04 01:37:01;;;;;;;29.93;9.60;;;;;;;;;;744722;187;919450;-69
2022/07/04 01:39:26;;;;;;;24.53;9.10;;;;;;;;;;737550;189;919111;-69
2022/07/04 01:41:53;;;;;;;43.65;10.98;;;;;;;;;;743258;188;919306;-69
2022/07/04 01:44:19;;;;;;;28.53;9.50;;;;;;;;;;753939;185;919071;-69
2022/07/04 01:46:45;;;;;;;20.03;10.30;;;;;;;;;;737125;187;918171;-69
2022/07/04 01:49:10;;;;;;;13.80;8.07;;;;;;;;;;739974;187;1021011;-70
2022/07/04 01:51:36;;;;;;;16.53;8.80;;;;;;;;;;744013;188;918415;-69
2022/07/04 01:54:02;;;;;;;28.13;10.10;;;;;;;;;;738826;188;918545;-68
2022/07/04 01:56:28;;;;;;;22.13;9.50;;;;;;;;;;741860;187;919097;-69
2022/07/04 01:58:54;;;;;;;30.10;9.97;;;;;;;;;;744177;187;918662;-68
2022/07/04 02:03:51;;;;;;;23.87;9.70;;;;;;;;;;739093;187;899712;-70
2022/07/04 02:06:17;;;;;;;24.30;10.38;;;;;;;;;;744884;187;918487;-69
2022/07/04 02:11:15;;;;;;;23.07;9.77;;;;;;;;;;742653;187;920896;-70
2022/07/04 02:13:40;;;;;;;22.57;10.40;;;;;;;;;;736850;187;917372;-70
2022/07/04 02:16:07;;;;;;;19.20;10.40;;;;;;;;;;738801;188;918687;-70
2022/07/04 02:18:33;;;;;;;21.70;10.97;;;;;;;;;;739094;187;919347;-70
2022/07/04 02:20:59;;;;;;;21.13;10.60;;;;;;;;;;738912;187;947849;-70
2022/07/04 02:23:25;;;;;;;29.98;10.70;;;;;;;;;;747983;187;1132111;-71
2022/07/04 02:25:51;;;;;;;24.73;9.83;;;;;;;;;;751098;187;919532;-71
2022/07/04 02:28:18;;;;;;;41.37;10.97;;;;;;;;;;736148;189;919173;-71
2022/07/04 02:30:42;;;;;;;24.97;11.57;;;;;;;;;;736000;189;918548;-71
2022/07/04 02:33:08;;;;;;;26.10;10.20;;;;;;;;;;742975;188;918380;-70
2022/07/04 02:35:34;;;;;;;13.83;9.77;;;;;;;;;;742388;187;911427;-71
2022/07/04 02:38:00;;;;;;;25.43;10.43;;;;;;;;;;740241;189;913274;-70
2022/07/04 02:40:26;;;;;;;20.83;10.33;;;;;;;;;;744474;187;942269;-70
2022/07/04 02:42:52;;;;;;;35.87;11.33;;;;;;;;;;740613;187;913291;-70
2022/07/04 02:45:17;;;;;;;18.47;10.73;;;;;;;;;;739322;188;911539;-71
2022/07/04 02:47:43;;;;;;;23.00;11.00;;;;;;;;;;740621;188;912251;-70
2022/07/04 02:50:09;;;;;;;24.17;12.70;;;;;;;;;;748804;187;910690;-70
2022/07/04 02:52:35;;;;;;;25.48;11.55;;;;;;;;;;740709;189;917278;-72
2022/07/04 02:55:01;;;;;;;30.13;11.03;;;;;;;;;;738159;187;932137;-70
2022/07/04 02:57:27;;;;;;;25.13;12.80;;;;;;;;;;745204;187;934865;-70
2022/07/04 02:59:53;;;;;;;26.63;13.00;;;;;;;;;;738354;187;988902;-70
2022/07/04 03:02:18;;;;;;;30.00;13.40;;;;;;;;;;740978;186;925432;-70
2022/07/04 03:04:44;;;;;;;36.40;14.87;;;;;;;;;;746290;186;919086;-71
2022/07/04 03:07:10;;;;;;;41.63;12.83;;;;;;;;;;738188;188;919263;-71
2022/07/04 03:09:36;;;;;;;24.20;11.83;;;;;;;;;;738721;187;918852;-70
2022/07/04 03:12:02;;;;;;;35.88;13.48;;;;;;;;;;744759;187;920443;-70
2022/07/04 03:14:28;;;;;;;28.80;12.60;;;;;;;;;;739023;186;1824783;-70
2022/07/04 03:16:54;;;;;;;28.20;12.50;;;;;;;;;;741067;187;926868;-70
2022/07/04 03:19:19;;;;;;;24.92;12.90;;;;;;;;;;737624;188;918993;-71
2022/07/04 03:21:45;;;;;;;29.53;11.80;;;;;;;;;;745624;188;917661;-70
2022/07/04 03:24:11;;;;;;;26.80;11.90;;;;;;;;;;743292;187;918929;-71
2022/07/04 03:26:37;;;;;;;28.17;13.17;;;;;;;;;;741491;187;903369;-71
2022/07/04 03:29:03;;;;;;;27.00;13.10;;;;;;;;;;748729;188;626451;-71
2022/07/04 03:31:29;;;;;;;45.43;14.40;;;;;;;;;;742627;186;875736;-70
2022/07/04 03:33:55;;;;;;;36.23;16.03;;;;;;;;;;740157;189;929313;-70
2022/07/04 03:36:21;;;;;;;27.48;12.32;;;;;;;;;;742641;187;919462;-70
2022/07/04 03:38:47;;;;;;;29.13;14.17;;;;;;;;;;753136;185;919461;-69
2022/07/04 03:41:13;;;;;;;39.70;13.73;;;;;;;;;;738690;187;920258;-69
2022/07/04 03:43:39;;;;;;;38.20;14.43;;;;;;;;;;737786;188;919431;-69
2022/07/04 03:46:05;;;;;;;26.90;14.30;;;;;;;;;;744152;187;916469;-68
2022/07/04 03:48:30;;;;;;;28.43;14.90;;;;;;;;;;735962;187;945185;-69
2022/07/04 03:50:56;;;;;;;36.37;15.30;;;;;;;;;;741013;186;920530;-69
2022/07/04 03:53:22;;;;;;;36.20;14.93;;;;;;;;;;746233;188;919048;-69
2022/07/04 03:55:48;;;;;;;29.53;14.90;;;;;;;;;;735981;186;916830;-70
2022/07/04 03:58:14;;;;;;;41.00;15.87;;;;;;;;;;741328;189;915252;-69
2022/07/04 04:00:41;;;;;;;34.30;16.50;;;;;;;;;;745202;187;915287;-69
2022/07/04 04:05:26;;;;;;;42.85;15.80;;;;;;;;;;741298;188;917045;-69
2022/07/04 04:05:32;;;;;;;31.00;17.03;;;;;;;;;;740682;187;916460;-69
2022/07/04 04:07:57;;;;;;;32.73;18.77;;;;;;;;;;740226;188;1017509;-69
2022/07/04 04:10:24;;;;;;;38.03;19.33;;;;;;;;;;751329;187;916801;-69
2022/07/04 04:12:49;;;;;;;46.97;18.83;;;;;;;;;;737925;187;915972;-69
2022/07/04 04:15:15;;;;;;;49.30;21.80;;;;;;;;;;738071;188;922511;-69
2022/07/04 04:17:41;;;;;;;39.23;20.40;;;;;;;;;;749297;187;915391;-69
2022/07/04 04:20:08;;;;;;;40.20;21.10;;;;;;;;;;747668;186;632783;-69
2022/07/04 04:22:33;;;;;;;50.03;22.53;;;;;;;;;;742140;188;633290;-69
2022/07/04 04:24:59;;;;;;;58.87;23.40;;;;;;;;;;749482;186;617175;-69
2022/07/04 04:27:25;;;;;;;43.67;22.77;;;;;;;;;;745273;188;914318;-69
2022/07/04 04:29:50;;;;;;;46.37;25.97;;;;;;;;;;741011;188;918572;-70
2022/07/04 04:32:16;;;;;;;51.63;25.10;;;;;;;;;;744287;187;918965;-70
2022/07/04 04:34:42;;;;;;;67.33;26.87;;;;;;;;;;744609;186;912331;-69
2022/07/04 04:37:08;;;;;;;51.93;27.57;;;;;;;;;;740961;187;907862;-69
2022/07/04 04:39:34;;;;;;;48.33;25.17;;;;;;;;;;745332;187;927641;-69
2022/07/04 04:42:00;;;;;;;55.30;28.77;;;;;;;;;;740285;189;918400;-69
2022/07/04 04:44:26;;;;;;;48.70;26.43;;;;;;;;;;738832;188;918541;-70
2022/07/04 04:46:51;;;;;;;55.70;28.30;;;;;;;;;;735653;189;918841;-69
2022/07/04 04:49:18;;;;;;;58.13;29.70;;;;;;;;;;747620;187;918805;-70
2022/07/04 04:51:43;;;;;;;48.70;27.00;;;;;;;;;;737892;188;919243;-69
2022/07/04 04:54:09;;;;;;;52.87;27.73;;;;;;;;;;738890;188;918254;-69
2022/07/04 04:56:35;;;;;;;45.70;26.17;;;;;;;;;;742048;188;952267;-72
2022/07/04 04:59:01;;;;;;;43.53;25.70;;;;;;;;;;748175;184;919225;-71
2022/07/04 05:01:27;;;;;;;36.50;24.40;;;;;;;;;;740386;187;920649;-71
2022/07/04 05:03:52;;;;;;;35.93;23.60;;;;;;;;;;748745;187;918502;-70
2022/07/04 05:06:18;;;;;;;39.80;23.70;;;;;;;;;;745662;187;919644;-70
2022/07/04 05:08:44;;;;;;;30.17;20.70;;;;;;;;;;738369;187;1021442;-71
2022/07/04 05:11:10;;;;;;;31.70;19.90;;;;;;;;;;743817;187;920485;-73
2022/07/04 05:13:36;;;;;;;31.97;20.30;;;;;;;;;;741179;189;919245;-73
2022/07/04 05:16:02;;;;;;;32.80;21.90;;;;;;;;;;738563;187;918862;-73
2022/07/04 05:18:27;;;;;;;32.07;20.17;;;;;;;;;;737637;188;918352;-72
2022/07/04 05:20:53;;;;;;;26.20;14.73;;;;;;;;;;746066;187;918955;-70
2022/07/04 05:23:19;;;;;;;23.60;16.37;;;;;;;;;;741584;187;919637;-74
2022/07/04 05:25:45;;;;;;;23.37;15.97;;;;;;;;;;741156;186;919160;-70
2022/07/04 05:28:11;;;;;;;20.13;15.20;;;;;;;;;;739236;188;918304;-72
2022/07/04 05:30:38;;;;;;;21.70;15.93;;;;;;;;;;750757;187;916835;-75
2022/07/04 05:33:03;;;;;;;22.13;15.50;;;;;;;;;;744350;187;915994;-74
2022/07/04 05:35:30;;;;;;;20.33;15.27;;;;;;;;;;740892;188;917761;-73
2022/07/04 05:37:55;;;;;;;17.13;13.40;;;;;;;;;;749358;187;854306;-75
2022/07/04 05:40:21;;;;;;;25.77;16.15;;;;;;;;;;747373;186;919691;-74
2022/07/04 05:42:48;;;;;;;20.13;14.90;;;;;;;;;;746607;187;920771;-76
2022/07/04 05:45:13;;;;;;;18.03;14.27;;;;;;;;;;745120;187;915748;-76
2022/07/04 05:47:39;;;;;;;18.40;14.47;;;;;;;;;;741637;187;919101;-76
2022/07/04 05:50:05;;;;;;;17.87;14.60;;;;;;;;;;737559;188;919287;-77
2022/07/04 05:52:31;;;;;;;18.87;15.03;;;;;;;;;;739952;189;919231;-75
2022/07/04 05:54:57;;;;;;;20.37;14.70;;;;;;;;;;744632;188;917838;-77
2022/07/04 05:57:22;;;;;;;19.80;13.43;;;;;;;;;;745102;187;919332;-77
2022/07/04 05:59:48;;;;;;;22.77;12.65;;;;;;;;;;741295;188;919338;-77
2022/07/04 06:02:15;;;;;;;16.58;13.82;;;;;;;;;;745690;187;919131;-76
2022/07/04 06:04:40;;;;;;;16.67;12.60;;;;;;;;;;745849;187;918756;-77
2022/07/04 06:07:06;;;;;;;19.87;12.90;;;;;;;;;;737259;187;920503;-77
2022/07/04 06:09:32;;;;;;;17.23;12.50;;;;;;;;;;746700;187;919480;-78
2022/07/04 06:11:58;;;;;;;13.23;11.83;;;;;;;;;;745402;186;918906;-78
2022/07/04 06:14:23;;;;;;;14.73;12.00;;;;;;;;;;739034;187;925345;-77
2022/07/04 06:16:49;;;;;;;13.33;10.90;;;;;;;;;;738832;188;919536;-76
2022/07/04 06:19:15;;;;;;;12.17;10.10;;;;;;;;;;741987;187;919272;-79
2022/07/04 06:21:41;;;;;;;13.10;10.27;;;;;;;;;;742328;187;916194;-77
2022/07/04 06:24:07;;;;;;;15.63;11.90;;;;;;;;;;741033;187;915599;-77
2022/07/04 06:26:33;;;;;;;12.33;10.20;;;;;;;;;;745971;188;918181;-77
2022/07/04 06:28:59;;;;;;;14.13;10.93;;;;;;;;;;741380;188;916567;-77
2022/07/04 06:31:24;;;;;;;15.57;11.57;;;;;;;;;;737006;187;913737;-78
2022/07/04 06:36:22;;;;;;;10.73;9.47;;;;;;;;;;749364;186;807615;-78
2022/07/04 06:38:48;;;;;;;17.80;9.87;;;;;;;;;;746347;186;855331;-77
2022/07/04 06:41:13;;;;;;;11.15;10.05;;;;;;;;;;744463;186;919439;-78
2022/07/04 06:43:39;;;;;;;10.90;9.50;;;;;;;;;;745705;187;918811;-77
2022/07/04 06:46:05;;;;;;;15.70;10.43;;;;;;;;;;741437;187;905061;-77
2022/07/04 06:48:31;;;;;;;11.43;10.10;;;;;;;;;;742293;188;876598;-77
2022/07/04 06:50:57;;;;;;;15.57;11.40;;;;;;;;;;748133;188;917937;-76
2022/07/04 06:53:23;;;;;;;11.10;10.00;;;;;;;;;;744014;187;638314;-77
2022/07/04 06:55:48;;;;;;;10.20;9.10;;;;;;;;;;741048;188;915207;-77
2022/07/04 06:58:14;;;;;;;12.80;9.60;;;;;;;;;;745193;188;916941;-77
2022/07/04 07:00:41;;;;;;;10.90;8.77;;;;;;;;;;748272;187;683936;-77
2022/07/04 07:03:06;;;;;;;11.97;9.07;;;;;;;;;;747293;186;918016;-76
2022/07/04 07:05:32;;;;;;;11.03;9.03;;;;;;;;;;747631;187;629931;-76
2022/07/04 07:07:58;;;;;;;11.30;9.57;;;;;;;;;;746528;188;623935;-77
2022/07/04 07:10:24;;;;;;;13.53;9.13;;;;;;;;;;741744;188;619775;-77
2022/07/04 07:12:49;;;;;;;11.98;9.10;;;;;;;;;;741208;188;912391;-76
2022/07/04 07:15:16;;;;;;;13.47;9.10;;;;;;;;;;743844;189;909649;-76
2022/07/04 07:17:41;;;;;;;8.70;7.77;;;;;;;;;;742394;189;627465;-77
2022/07/04 07:20:08;;;;;;;6.93;6.13;;;;;;;;;;738603;187;918287;-76
2022/07/04 07:22:33;;;;;;;9.23;7.07;;;;;;;;;;752114;187;631927;-76
2022/07/04 07:24:59;;;;;;;15.50;9.63;;;;;;;;;;739789;187;917866;-75
2022/07/04 07:27:25;;;;;;;8.17;6.90;;;;;;;;;;739542;188;918265;-76
2022/07/04 07:29:51;;;;;;;8.43;7.03;;;;;;;;;;732881;187;918672;-75
2022/07/04 07:32:17;;;;;;;9.80;6.70;;;;;;;;;;747051;187;930776;-76
2022/07/04 07:34:43;;;;;;;9.50;6.40;;;;;;;;;;738723;188;918457;-74
2022/07/04 07:37:09;;;;;;;6.47;5.73;;;;;;;;;;740537;189;918244;-73
2022/07/04 07:39:35;;;;;;;6.97;5.57;;;;;;;;;;748027;188;916118;-76
2022/07/04 07:42:00;;;;;;;7.20;6.47;;;;;;;;;;739849;188;834988;-76
2022/07/04 07:44:26;;;;;;;6.90;6.10;;;;;;;;;;744748;187;916265;-76
2022/07/04 07:46:52;;;;;;;7.17;6.00;;;;;;;;;;744384;187;813061;-75
2022/07/04 07:49:18;;;;;;;11.40;6.10;;;;;;;;;;742366;186;919308;-74
2022/07/04 07:51:44;;;;;;;7.07;5.77;;;;;;;;;;745331;187;917047;-74
2022/07/04 07:54:10;;;;;;;7.07;6.37;;;;;;;;;;741912;187;940354;-75
2022/07/04 07:56:36;;;;;;;6.07;4.50;;;;;;;;;;741112;187;917978;-75
2022/07/04 07:59:02;;;;;;;6.20;5.20;;;;;;;;;;738748;188;919598;-75
2022/07/04 08:01:27;;;;;;;7.77;5.43;;;;;;;;;;742141;185;931022;-72
2022/07/04 08:06:25;;;;;;;7.53;4.80;;;;;;;;;;738337;188;918946;-74
2022/07/04 08:08:51;;;;;;;6.43;4.72;;;;;;;;;;734633;189;1010296;-75
2022/07/04 08:11:17;;;;;;;5.67;4.97;;;;;;;;;;741688;187;918522;-74
2022/07/04 08:13:43;;;;;;;6.17;5.20;;;;;;;;;;754544;185;629123;-75
2022/07/04 08:16:08;;;;;;;5.17;4.67;;;;;;;;;;738859;187;919358;-74
2022/07/04 08:18:34;;;;;;;5.83;4.50;;;;;;;;;;738265;188;919343;-75
2022/07/04 08:21:00;;;;;;;5.90;5.00;;;;;;;;;;742080;189;918427;-76
2022/07/04 08:23:27;;;;;;;6.67;5.63;;;;;;;;;;737095;188;920003;-77
2022/07/04 08:25:53;;;;;;;7.12;5.53;;;;;;;;;;742731;187;919127;-74
2022/07/04 08:28:18;;;;;;;5.62;4.62;;;;;;;;;;744633;188;712125;-73
2022/07/04 08:30:44;;;;;;;6.90;4.60;;;;;;;;;;742158;187;919796;-75
2022/07/04 08:33:10;;;;;;;7.00;5.18;;;;;;;;;;737955;189;917844;-75
2022/07/04 08:35:36;;;;;;;6.63;5.10;;;;;;;;;;750991;187;917869;-74
2022/07/04 08:38:02;;;;;;;6.90;4.80;;;;;;;;;;732227;187;933683;-74
2022/07/04 08:40:27;;;;;;;6.40;4.03;;;;;;;;;;739969;188;924552;-74
2022/07/04 08:42:53;;;;;;;5.93;4.70;;;;;;;;;;740313;189;919254;-75
2022/07/04 08:45:22;;;;;;;7.53;4.97;;;;;;;;;;743142;188;919537;-74
2022/07/04 08:47:48;;;;;;;5.83;4.00;;;;;;;;;;739893;187;918382;-76
2022/07/04 08:50:15;;;;;;;3.93;3.13;;;;;;;;;;742662;187;919105;-75
2022/07/04 08:52:42;;;;;;;4.97;3.80;;;;;;;;;;746686;187;919925;-76
2022/07/04 09:00:11;;;;;;;3.77;3.20;;;;;;;;;;745780;186;861650;-76
2022/07/04 09:02:37;;;;;;;4.80;3.87;;;;;;;;;;746194;187;623440;-75
2022/07/04 09:05:03;;;;;;;5.33;2.87;;;;;;;;;;745179;187;918692;-75
2022/07/04 09:07:29;;;;;;;4.10;3.10;;;;;;;;;;744336;187;919539;-76
2022/07/04 09:09:54;;;;;;;6.20;3.27;;;;;;;;;;739758;187;919604;-76
2022/07/04 09:12:20;;;;;;;6.77;3.37;;;;;;;;;;747485;187;615958;-77
2022/07/04 09:14:46;;;;;;;7.87;4.17;;;;;;;;;;739185;188;919519;-75
2022/07/04 09:17:12;;;;;;;4.10;3.30;;;;;;;;;;741570;188;918300;-77
2022/07/04 09:19:38;;;;;;;4.87;3.57;;;;;;;;;;747258;187;816699;-77
2022/07/04 09:22:05;;;;;;;4.63;4.10;;;;;;;;;;742523;186;792568;-77
2022/07/04 09:24:35;;;;;;;4.57;3.90;;;;;;;;;;741425;188;918023;-73
2022/07/04 09:27:01;;;;;;;8.50;4.13;;;;;;;;;;741928;187;920765;-76
2022/07/04 09:29:27;;;;;;;7.40;3.60;;;;;;;;;;754580;184;919067;-76
2022/07/04 09:31:53;;;;;;;4.90;3.70;;;;;;;;;;748038;187;1039330;-75
2022/07/04 09:34:19;;;;;;;4.70;3.90;;;;;;;;;;743954;187;921249;-75
2022/07/04 09:36:45;;;;;;;5.83;3.47;;;;;;;;;;738764;189;917236;-74
2022/07/04 09:39:18;;;;;;;5.07;3.23;;;;;;;;;;732245;191;918237;-75
2022/07/04 09:41:50;;;;;;;4.73;3.57;;;;;;;;;;732526;189;919462;-74
2022/07/04 09:44:16;;;;;;;4.40;3.40;;;;;;;;;;746422;187;918126;-74
2022/07/04 09:46:41;;;;;;;4.50;3.40;;;;;;;;;;744646;188;816345;-75
2022/07/04 09:49:07;;;;;;;5.55;4.25;;;;;;;;;;740873;189;1018838;-74
2022/07/04 09:51:41;;;;;;;3.80;3.37;;;;;;;;;;741538;188;918985;-73
2022/07/04 09:54:13;;;;;;;5.90;3.90;;;;;;;;;;740350;189;915847;-75
2022/07/04 09:56:39;;;;;;;7.10;3.30;;;;;;;;;;747074;188;920549;-73
2022/07/04 09:59:06;;;;;;;5.57;3.67;;;;;;;;;;739538;189;917916;-75
2022/07/04 10:01:30;;;;;;;5.10;3.50;;;;;;;;;;740202;189;815926;-74
2022/07/04 10:03:56;;;;;;;5.03;4.10;;;;;;;;;;746890;186;915973;-76
2022/07/04 10:06:22;;;;;;;4.40;3.23;;;;;;;;;;744395;188;869574;-73
2022/07/04 10:08:48;;;;;;;4.00;3.37;;;;;;;;;;740774;186;919111;-76
2022/07/04 10:11:14;;;;;;;5.27;4.17;;;;;;;;;;737107;189;916404;-73
2022/07/04 10:13:40;;;;;;;8.53;4.90;;;;;;;;;;752571;186;634368;-76
2022/07/04 10:16:07;;;;;;;12.63;4.57;;;;;;;;;;738342;185;918956;-74
2022/07/04 10:18:32;;;;;;;5.67;3.50;;;;;;;;;;742867;188;917756;-76
2022/07/04 10:20:57;;;;;;;5.40;4.20;;;;;;;;;;751357;187;919904;-73
2022/07/04 10:23:23;;;;;;;6.07;3.97;;;;;;;;;;747629;187;825188;-73
2022/07/04 10:25:49;;;;;;;5.97;4.50;;;;;;;;;;745309;187;927504;-74
2022/07/04 10:28:15;;;;;;;8.23;3.97;;;;;;;;;;746953;187;918176;-74
2022/07/04 10:30:41;;;;;;;5.17;3.87;;;;;;;;;;738385;187;920591;-74
2022/07/04 10:33:08;;;;;;;8.33;3.90;;;;;;;;;;735918;187;916299;-74
2022/07/04 10:35:40;;;;;;;10.43;5.17;;;;;;;;;;747010;187;920387;-73
2022/07/04 10:38:07;;;;;;;4.40;3.60;;;;;;;;;;747026;188;904910;-72
2022/07/04 10:40:38;;;;;;;4.40;3.30;;;;;;;;;;743557;187;911248;-73
2022/07/04 10:43:03;;;;;;;8.47;3.60;;;;;;;;;;733890;187;914005;-73
2022/07/04 10:45:31;;;;;;;4.87;4.27;;;;;;;;;;733668;188;914002;-74
2022/07/04 10:47:58;;;;;;;13.00;4.30;;;;;;;;;;746692;189;912099;-75
2022/07/04 10:50:28;;;;;;;10.07;4.03;;;;;;;;;;739811;188;910690;-74
2022/07/04 10:53:00;;;;;;;4.70;3.60;;;;;;;;;;740674;187;901047;-75
2022/07/04 10:55:25;;;;;;;5.63;3.77;;;;;;;;;;735138;188;933901;-74
2022/07/04 10:57:51;;;;;;;5.40;4.20;;;;;;;;;;745831;187;918792;-74
2022/07/04 11:00:17;;;;;;;8.37;3.70;;;;;;;;;;734982;188;919143;-75
2022/07/04 11:02:43;;;;;;;15.23;5.37;;;;;;;;;;738627;186;918014;-73
2022/07/04 11:05:09;;;;;;;5.30;4.37;;;;;;;;;;747095;189;918493;-71
2022/07/04 11:07:50;;;;;;;4.90;3.60;;;;;;;;;;735705;189;1023338;-72
2022/07/04 11:10:21;;;;;;;5.87;4.20;;;;;;;;;;746009;187;635485;-73
2022/07/04 11:13:07;;;;;;;6.10;4.50;;;;;;;;;;740684;187;1020903;-71
2022/07/04 11:15:46;;;;;;;4.57;4.07;;;;;;;;;;740557;187;919339;-72
2022/07/04 11:18:12;;;;;;;4.93;4.13;;;;;;;;;;743942;187;919035;-76
2022/07/04 11:20:38;;;;;;;6.23;3.83;;;;;;;;;;741842;188;919117;-77
2022/07/04 11:23:07;;;;;;;7.23;4.27;;;;;;;;;;748410;186;636291;-75
2022/07/04 11:25:33;;;;;;;5.90;4.50;;;;;;;;;;749697;187;620902;-75
2022/07/04 11:27:59;;;;;;;4.57;3.87;;;;;;;;;;742957;187;628788;-74
2022/07/04 11:30:25;;;;;;;5.20;4.10;;;;;;;;;;747280;186;632803;-75
2022/07/04 11:32:52;;;;;;;5.73;4.20;;;;;;;;;;747698;187;629281;-74
2022/07/04 11:35:17;;;;;;;4.40;4.00;;;;;;;;;;746642;187;626764;-75
2022/07/04 11:37:43;;;;;;;4.73;3.83;;;;;;;;;;741302;187;619124;-72
2022/07/04 11:45:12;;;;;;;8.60;4.50;;;;;;;;;;742595;187;914813;-74
2022/07/04 11:47:38;;;;;;;6.83;4.90;;;;;;;;;;747979;187;917568;-74
2022/07/04 11:50:05;;;;;;;5.23;4.43;;;;;;;;;;747130;185;908331;-74
2022/07/04 11:52:34;;;;;;;4.90;4.40;;;;;;;;;;737213;186;915906;-73
2022/07/04 11:54:57;;;;;;;5.67;4.20;;;;;;;;;;738758;188;915163;-73
2022/07/04 11:57:23;;;;;;;6.33;4.70;;;;;;;;;;749601;187;919436;-73
2022/07/04 11:59:56;;;;;;;4.90;4.40;;;;;;;;;;739400;187;918860;-73
2022/07/04 12:02:22;;;;;;;8.73;4.50;;;;;;;;;;736986;189;919562;-74
2022/07/04 12:04:47;;;;;;;5.20;4.20;;;;;;;;;;738272;187;919824;-74
2022/07/04 12:07:15;;;;;;;6.87;4.17;;;;;;;;;;745953;187;919216;-74
2022/07/04 12:09:41;;;;;;;7.13;3.57;;;;;;;;;;737570;186;919043;-75
2022/07/04 12:12:08;;;;;;;5.27;3.90;;;;;;;;;;737451;187;918937;-74
2022/07/04 12:14:34;;;;;;;5.57;3.60;;;;;;;;;;751199;187;623460;-74
2022/07/04 12:17:05;;;;;;;8.20;3.93;;;;;;;;;;745314;187;918289;-74
2022/07/04 12:19:31;;;;;;;5.63;3.27;;;;;;;;;;741952;187;918927;-76
2022/07/04 12:21:57;;;;;;;5.67;3.50;;;;;;;;;;741348;187;917942;-74
2022/07/04 12:24:23;;;;;;;4.70;3.28;;;;;;;;;;746027;189;921462;-72
2022/07/04 12:26:49;;;;;;;5.20;3.90;;;;;;;;;;737991;185;919477;-75
2022/07/04 12:29:21;;;;;;;5.53;3.70;;;;;;;;;;737736;188;919666;-75
2022/07/04 12:31:48;;;;;;;34.03;4.27;;;;;;;;;;743841;189;922100;-73
2022/07/04 12:34:14;;;;;;;5.23;4.27;;;;;;;;;;740651;189;918762;-74
2022/07/04 12:36:45;;;;;;;15.23;4.40;;;;;;;;;;735893;187;919411;-73
2022/07/04 12:39:11;;;;;;;7.50;3.43;;;;;;;;;;754179;186;918542;-73
2022/07/04 12:41:37;;;;;;;5.07;3.27;;;;;;;;;;748483;187;919492;-73
2022/07/04 12:44:03;;;;;;;4.50;4.10;;;;;;;;;;745770;187;919408;-73
2022/07/04 12:46:30;;;;;;;3.90;3.43;;;;;;;;;;737705;188;919205;-76
2022/07/04 12:48:56;;;;;;;6.30;3.33;;;;;;;;;;739163;187;918582;-74
2022/07/04 12:51:21;;;;;;;4.30;3.50;;;;;;;;;;747343;187;632577;-76
2022/07/04 12:53:47;;;;;;;4.90;2.60;;;;;;;;;;745093;187;648559;-72
2022/07/04 12:56:19;;;;;;;4.07;3.23;;;;;;;;;;741821;187;920293;-73
2022/07/04 12:58:45;;;;;;;3.83;3.07;;;;;;;;;;757547;187;894382;-74
2022/07/04 13:01:11;;;;;;;8.83;4.10;;;;;;;;;;746082;186;919714;-71
2022/07/04 13:03:37;;;;;;;8.37;2.83;;;;;;;;;;744536;187;918906;-74
2022/07/04 13:06:03;;;;;;;3.60;2.53;;;;;;;;;;739237;188;935324;-72
2022/07/04 13:08:29;;;;;;;4.40;2.83;;;;;;;;;;747197;189;898751;-74
2022/07/04 13:12:24;;;;;;;3.97;2.90;;;;;;;;;;743769;187;917738;-73
2022/07/04 13:13:20;;;;;;;5.03;3.00;;;;;;;;;;743861;187;639406;-75
2022/07/04 13:15:46;;;;;;;4.00;2.40;;;;;;;;;;744400;189;919005;-74
2022/07/04 13:18:12;;;;;;;3.93;3.00;;;;;;;;;;739652;188;918870;-73
2022/07/04 13:20:38;;;;;;;4.87;2.97;;;;;;;;;;742229;187;919528;-73
2022/07/04 13:23:04;;;;;;;4.40;3.03;;;;;;;;;;743185;187;918489;-73
2022/07/04 13:25:30;;;;;;;4.77;3.33;;;;;;;;;;743141;187;919272;-73
2022/07/04 13:27:55;;;;;;;3.83;3.10;;;;;;;;;;745510;187;935827;-74
2022/07/04 13:30:21;;;;;;;6.47;3.40;;;;;;;;;;748252;187;918258;-73
2022/07/04 13:32:47;;;;;;;5.80;2.80;;;;;;;;;;743124;185;920369;-74
2022/07/04 13:35:13;;;;;;;4.20;3.43;;;;;;;;;;743033;187;816174;-74
2022/07/04 13:37:39;;;;;;;5.17;3.47;;;;;;;;;;743636;189;656324;-74
2022/07/04 13:40:06;;;;;;;5.70;3.60;;;;;;;;;;745988;189;622296;-74
2022/07/04 13:45:18;;;;;;;5.27;3.80;;;;;;;;;;740040;186;645821;-74
2022/07/04 13:47:43;;;;;;;7.33;4.10;;;;;;;;;;745184;187;625065;-75
2022/07/04 13:50:09;;;;;;;4.50;3.70;;;;;;;;;;749967;188;628090;-73
2022/07/04 13:52:35;;;;;;;4.33;3.67;;;;;;;;;;741941;188;918878;-74
2022/07/04 13:55:01;;;;;;;5.17;4.27;;;;;;;;;;741078;187;907394;-73
2022/07/04 13:57:28;;;;;;;7.00;3.97;;;;;;;;;;744711;188;623790;-73
2022/07/04 13:59:53;;;;;;;6.87;3.57;;;;;;;;;;747425;188;634336;-74
2022/07/04 14:02:19;;;;;;;5.70;3.80;;;;;;;;;;744678;187;623419;-74
2022/07/04 14:04:45;;;;;;;6.70;3.60;;;;;;;;;;741297;186;651482;-73
2022/07/04 14:07:10;;;;;;;4.40;3.57;;;;;;;;;;745487;187;919325;-73
2022/07/04 14:09:36;;;;;;;11.80;3.57;;;;;;;;;;742274;187;919890;-72
2022/07/04 14:12:02;;;;;;;4.87;3.70;;;;;;;;;;740015;187;919381;-73
2022/07/04 14:14:28;;;;;;;6.00;3.90;;;;;;;;;;748310;188;919222;-73
2022/07/04 14:16:54;;;;;;;5.73;4.90;;;;;;;;;;743665;187;919181;-73
2022/07/04 14:19:20;;;;;;;5.40;3.40;;;;;;;;;;742732;187;919073;-73
2022/07/04 14:21:46;;;;;;;5.90;4.50;;;;;;;;;;746663;187;921018;-74
2022/07/04 14:24:11;;;;;;;4.50;3.20;;;;;;;;;;755799;185;636519;-76
2022/07/04 14:26:37;;;;;;;5.97;3.53;;;;;;;;;;741658;187;627238;-74
2022/07/04 14:29:03;;;;;;;3.97;3.47;;;;;;;;;;741815;188;637678;-73
2022/07/04 14:31:30;;;;;;;5.53;3.67;;;;;;;;;;746742;189;616874;-72
2022/07/04 14:33:55;;;;;;;5.47;4.10;;;;;;;;;;740282;189;632309;-72
2022/07/04 14:36:21;;;;;;;3.83;3.10;;;;;;;;;;742978;187;627337;-72